Time;durP1;ratioP1;P1;durP2;ratioP2;P2;SDS_P1;SDS_P2;PMS_P1;PMS_P2;Temp;Humidity;BMP_temperature;BMP_pressure;BME280_temperature;BME280_humidity;BME280_pressure;Samples;Min_cycle;Max_cycle;Signal;HPM_P1;HPM_P2
2023/09/24 00:00:59;;;;;;;4.20;2.08;;;;;;;11.70;100.00;100543.34;12160588;19;20023;-82
2023/09/24 00:05:01;;;;;;;5.50;2.13;;;;;;;11.71;100.00;100544.16;12186157;19;20125;-83
2023/09/24 00:09:03;;;;;;;5.20;1.90;;;;;;;11.68;100.00;100551.00;12193320;19;20023;-83
2023/09/24 00:13:05;;;;;;;5.70;2.20;;;;;;;11.64;100.00;100555.34;12165910;19;20034;-83
2023/09/24 00:17:08;;;;;;;3.50;1.80;;;;;;;11.64;100.00;100566.38;12186176;19;20006;-82
2023/09/24 00:21:17;;;;;;;7.85;2.30;;;;;;;11.61;100.00;100559.41;12186421;19;20038;-82
2023/09/24 00:25:21;;;;;;;5.03;2.00;;;;;;;11.58;100.00;100564.56;12158311;19;20061;-83
2023/09/24 00:29:23;;;;;;;;;;;;;;;11.55;100.00;100559.53;12186436;19;20010;-83
2023/09/24 00:33:25;;;;;;;12.85;2.60;;;;;;;11.52;100.00;100565.53;12180627;19;19915;-83
2023/09/24 00:37:27;;;;;;;4.95;2.15;;;;;;;11.46;100.00;100572.00;12160979;19;20021;-82
2023/09/24 00:41:30;;;;;;;3.42;1.92;;;;;;;11.43;100.00;100567.78;12181850;19;20003;-83
2023/09/24 00:45:33;;;;;;;6.53;2.67;;;;;;;11.43;100.00;100569.72;12184931;19;20026;-83
2023/09/24 00:49:35;;;;;;;8.80;2.70;;;;;;;11.40;100.00;100571.84;12157503;19;20003;-83
2023/09/24 00:53:38;;;;;;;5.78;2.25;;;;;;;11.39;100.00;100572.94;12182283;19;20009;-82
2023/09/24 00:57:41;;;;;;;;;;;;;;;11.39;100.00;100575.72;12161965;19;20028;-82
2023/09/24 01:01:44;;;;;;;5.20;2.45;;;;;;;11.37;100.00;100577.84;12176044;19;19932;-82
2023/09/24 01:05:49;;;;;;;4.43;2.45;;;;;;;11.36;100.00;100576.19;12200688;19;20021;-83
2023/09/24 01:09:51;;;;;;;5.53;2.15;;;;;;;11.33;100.00;100576.66;12178367;19;20462;-83
2023/09/24 01:13:53;;;;;;;6.72;2.65;;;;;;;11.28;100.00;100573.75;12187722;19;20010;-83
2023/09/24 01:17:57;;;;;;;9.73;2.47;;;;;;;11.26;100.00;100570.38;12181068;19;20360;-83
2023/09/24 01:22:01;;;;;;;4.68;2.17;;;;;;;11.25;100.00;100568.72;12158839;19;20007;-83
2023/09/24 01:26:03;;;;;;;8.73;2.70;;;;;;;11.25;100.00;100565.94;12177773;19;20018;-83
2023/09/24 01:30:06;;;;;;;8.73;2.67;;;;;;;11.25;100.00;100571.47;12177772;19;20438;-82
2023/09/24 01:34:10;;;;;;;6.60;2.60;;;;;;;11.22;100.00;100562.81;12155724;19;20580;-82
2023/09/24 01:38:13;;;;;;;8.73;2.88;;;;;;;11.20;100.00;100568.56;12179816;19;20013;-82
2023/09/24 01:42:15;;;;;;;7.38;2.63;;;;;;;11.18;100.00;100567.94;12172854;19;20010;-82
2023/09/24 01:46:20;;;;;;;6.68;2.53;;;;;;;11.18;100.00;100562.44;12153903;19;20031;-82
2023/09/24 01:50:28;;;;;;;10.80;3.83;;;;;;;11.15;100.00;100574.81;12178250;19;20351;-83
2023/09/24 01:54:31;;;;;;;7.13;2.42;;;;;;;11.14;100.00;100575.03;12173823;19;20007;-82
2023/09/24 01:58:37;;;;;;;3.83;2.03;;;;;;;11.13;100.00;100576.94;12153634;19;20012;-82
2023/09/24 02:02:41;;;;;;;9.98;2.45;;;;;;;11.13;100.00;100573.34;12176616;19;20006;-82
2023/09/24 02:06:42;;;;;;;6.70;2.53;;;;;;;11.11;100.00;100576.34;12159259;19;20015;-82
2023/09/24 02:10:45;;;;;;;7.38;2.30;;;;;;;11.08;100.00;100575.97;12177909;19;20018;-82
2023/09/24 02:14:49;;;;;;;6.03;2.15;;;;;;;11.06;100.00;100591.91;12176532;19;20010;-82
2023/09/24 02:18:55;;;;;;;7.97;2.30;;;;;;;11.03;100.00;100582.16;12156714;19;20003;-82
2023/09/24 02:23:01;;;;;;;5.80;2.90;;;;;;;11.05;100.00;100581.94;12187272;19;20530;-81
2023/09/24 02:27:04;;;;;;;5.03;2.28;;;;;;;11.05;100.00;100590.22;12188112;19;20010;-81
2023/09/24 02:31:07;;;;;;;7.32;2.40;;;;;;;11.04;100.00;100596.81;12161679;19;20006;-80
2023/09/24 02:35:11;;;;;;;5.53;2.97;;;;;;;11.03;100.00;100607.00;12180237;19;20018;-81
2023/09/24 02:39:13;;;;;;;9.23;2.55;;;;;;;11.01;100.00;100600.06;12186678;19;20019;-81
2023/09/24 02:43:16;;;;;;;6.30;2.50;;;;;;;10.97;100.00;100598.81;12167275;19;20013;-82
2023/09/24 02:47:18;;;;;;;6.85;2.33;;;;;;;10.97;100.00;100610.69;12189824;19;20094;-82
2023/09/24 02:51:22;;;;;;;5.55;2.70;;;;;;;10.95;100.00;100605.41;12189203;19;20002;-81
2023/09/24 02:55:25;;;;;;;;;;;;;;;10.92;100.00;100611.41;12164854;19;20026;-81
2023/09/24 02:59:28;;;;;;;6.72;2.40;;;;;;;10.93;100.00;100609.47;12190853;19;21391;-82
2023/09/24 03:03:30;;;;;;;5.13;2.20;;;;;;;10.92;100.00;100607.81;12189235;19;20011;-82
2023/09/24 03:07:33;;;;;;;4.18;2.20;;;;;;;10.90;100.00;100613.53;12165588;19;20006;-82
2023/09/24 03:11:35;;;;;;;5.87;2.37;;;;;;;10.86;100.00;100625.28;12195307;19;20010;-82
2023/09/24 03:15:37;;;;;;;5.82;2.67;;;;;;;10.85;100.00;100626.34;12166231;19;20493;-81
2023/09/24 03:19:40;;;;;;;4.55;2.33;;;;;;;10.83;100.00;100625.75;12187621;19;20002;-81
2023/09/24 03:23:42;;;;;;;7.28;2.58;;;;;;;10.81;100.00;100633.41;12184720;19;20013;-82
2023/09/24 03:27:56;;;;;;;7.20;2.75;;;;;;;10.77;100.00;100633.03;12163769;19;20022;-82
2023/09/24 03:31:59;;;;;;;8.15;2.53;;;;;;;10.77;100.00;100643.19;12186178;19;20018;-82
2023/09/24 03:36:02;;;;;;;5.03;2.78;;;;;;;10.75;100.00;100646.19;12182150;19;20097;-80
2023/09/24 03:40:05;;;;;;;7.13;2.85;;;;;;;10.73;100.00;100649.16;12159489;19;20086;-81
2023/09/24 03:44:11;;;;;;;8.43;2.90;;;;;;;10.74;100.00;100652.78;12187205;19;20493;-81
2023/09/24 03:48:13;;;;;;;7.28;2.70;;;;;;;10.75;100.00;100665.47;12176561;19;20047;-81
2023/09/24 03:52:15;;;;;;;6.07;2.92;;;;;;;10.71;100.00;100656.00;12158303;19;20007;-81
2023/09/24 03:56:17;;;;;;;4.25;2.45;;;;;;;10.72;100.00;100660.44;12181139;19;20003;-81
2023/09/24 04:00:20;;;;;;;6.20;2.50;;;;;;;10.68;100.00;100656.47;12180497;19;20003;-80
2023/09/24 04:04:26;;;;;;;6.32;2.40;;;;;;;10.64;100.00;100663.50;12159467;19;20011;-80
2023/09/24 04:08:29;;;;;;;5.22;2.53;;;;;;;10.60;100.00;100663.13;12177598;19;20007;-80
2023/09/24 04:12:34;;;;;;;;;;;;;;;10.59;100.00;100669.72;12181227;19;20014;-80
2023/09/24 04:16:37;;;;;;;6.88;2.70;;;;;;;10.58;100.00;100678.19;12155836;19;20354;-80
2023/09/24 04:20:39;;;;;;;7.57;2.72;;;;;;;10.57;100.00;100680.09;12177720;19;20014;-80
2023/09/24 04:24:41;;;;;;;5.30;2.70;;;;;;;10.56;100.00;100681.19;12156843;19;20007;-81
2023/09/24 04:28:43;;;;;;;7.55;2.90;;;;;;;10.56;100.00;100688.59;12180190;19;20018;-80
2023/09/24 04:32:52;;;;;;;6.90;2.75;;;;;;;10.56;100.00;100694.09;12177302;19;20024;-81
2023/09/24 04:36:55;;;;;;;4.78;2.42;;;;;;;10.52;100.00;100699.22;12156915;19;20546;-80
2023/09/24 04:40:58;;;;;;;8.25;2.75;;;;;;;10.51;100.00;100708.56;12182606;19;20054;-81
2023/09/24 04:45:00;;;;;;;;;;;;;;;10.48;100.00;100712.63;12180465;19;20003;-80
2023/09/24 04:49:02;;;;;;;6.88;2.88;;;;;;;10.52;100.00;100725.94;12157639;19;19913;-80
2023/09/24 04:53:06;;;;;;;6.90;2.93;;;;;;;10.51;100.00;100716.00;12177368;19;20007;-81
2023/09/24 04:57:09;;;;;;;6.60;3.25;;;;;;;10.49;100.00;100718.97;12178168;19;20011;-81
2023/09/24 05:01:12;;;;;;;7.38;2.92;;;;;;;10.48;100.00;100729.16;12163538;19;20002;-81
2023/09/24 05:05:15;;;;;;;5.28;2.78;;;;;;;10.46;100.00;100731.28;12188634;19;20006;-81
2023/09/24 05:09:18;;;;;;;6.80;3.20;;;;;;;10.44;100.00;100744.47;12193930;19;20007;-81
2023/09/24 05:13:20;;;;;;;6.53;2.92;;;;;;;10.42;100.00;100748.53;12179903;19;20700;-80
2023/09/24 05:17:22;;;;;;;14.17;3.27;;;;;;;10.41;100.00;100755.94;12190575;19;20683;-80
2023/09/24 05:21:24;;;;;;;11.82;3.72;;;;;;;10.42;100.00;100763.13;12185029;19;20090;-82
2023/09/24 05:25:26;;;;;;;10.30;4.33;;;;;;;10.44;100.00;100760.13;12163237;19;21073;-80
2023/09/24 05:29:28;;;;;;;6.20;2.97;;;;;;;10.46;100.00;100769.03;12182277;19;20247;-81
2023/09/24 05:33:31;;;;;;;7.60;3.03;;;;;;;10.48;100.00;100773.25;12177745;19;20370;-81
2023/09/24 05:37:33;;;;;;;8.30;2.97;;;;;;;10.50;100.00;100789.56;12153016;19;20034;-81
2023/09/24 05:41:35;;;;;;;6.85;2.80;;;;;;;10.51;100.00;100785.75;12175935;19;20141;-81
2023/09/24 05:45:47;;;;;;;6.55;3.33;;;;;;;10.52;100.00;100792.09;12162496;19;20007;-82
2023/09/24 05:49:49;;;;;;;7.95;3.30;;;;;;;10.54;100.00;100799.06;12176632;19;20014;-82
2023/09/24 05:53:52;;;;;;;8.32;3.28;;;;;;;10.57;100.00;100800.53;12181351;19;20723;-81
2023/09/24 05:57:54;;;;;;;8.48;3.50;;;;;;;10.59;100.00;100813.03;12154718;19;20004;-81
2023/09/24 06:01:58;;;;;;;7.57;3.33;;;;;;;10.62;100.00;100811.69;12179057;19;20014;-81
2023/09/24 06:06:01;;;;;;;10.32;3.08;;;;;;;10.65;100.00;100816.78;12179980;19;20623;-82
2023/09/24 06:10:04;;;;;;;6.90;2.83;;;;;;;10.70;100.00;100828.81;12159834;19;20119;-82
2023/09/24 06:14:08;;;;;;;6.90;2.78;;;;;;;10.76;100.00;100826.22;12181833;19;20054;-82
2023/09/24 06:18:12;;;;;;;6.45;3.70;;;;;;;10.81;100.00;100829.97;12179581;19;20015;-82
2023/09/24 06:22:16;;;;;;;6.07;2.83;;;;;;;10.85;100.00;100831.22;12157088;19;20032;-81
2023/09/24 06:26:20;;;;;;;7.93;3.50;;;;;;;10.89;100.00;100834.38;12175542;19;20082;-81
2023/09/24 06:30:22;;;;;;;9.80;3.13;;;;;;;10.97;100.00;100844.25;12179298;19;20007;-80
2023/09/24 06:34:26;;;;;;;8.45;3.72;;;;;;;11.02;100.00;100849.94;12157372;19;20381;-81
2023/09/24 06:38:27;;;;;;;5.53;3.00;;;;;;;11.06;100.00;100853.91;12175317;19;20414;-81
2023/09/24 06:42:29;;;;;;;12.23;3.30;;;;;;;11.12;100.00;100858.53;12180374;19;20374;-81
2023/09/24 06:46:32;;;;;;;8.57;3.45;;;;;;;11.19;100.00;100848.28;12159621;19;20014;-80
2023/09/24 06:50:37;;;;;;;8.63;3.20;;;;;;;11.25;100.00;100839.09;12181903;19;19998;-80
2023/09/24 06:54:40;;;;;;;9.75;3.47;;;;;;;11.34;100.00;100848.75;12151909;19;20014;-80
2023/09/24 06:58:43;;;;;;;7.18;2.92;;;;;;;11.43;100.00;100856.72;12174325;19;20010;-81
2023/09/24 07:02:45;;;;;;;7.43;3.10;;;;;;;11.53;100.00;100854.25;12181279;19;21053;-81
2023/09/24 07:06:47;;;;;;;7.10;3.00;;;;;;;11.66;100.00;100865.16;12161909;19;20010;-81
2023/09/24 07:11:38;;;;;;;6.28;3.30;;;;;;;11.80;100.00;100857.53;12203552;19;20069;-81
2023/09/24 07:15:40;;;;;;;5.13;3.08;;;;;;;11.97;100.00;100852.25;12181475;19;20006;-82
2023/09/24 07:19:42;;;;;;;6.45;3.72;;;;;;;12.13;100.00;100856.25;12206653;19;20493;-81
2023/09/24 07:23:44;;;;;;;8.37;3.67;;;;;;;12.22;100.00;100852.09;12203397;19;20400;-81
2023/09/24 07:27:47;;;;;;;9.07;4.00;;;;;;;12.38;100.00;100856.13;12184022;19;20006;-81
2023/09/24 07:31:54;;;;;;;7.00;3.40;;;;;;;12.52;100.00;100863.09;12206131;19;20488;-82
2023/09/24 07:35:55;;;;;;;6.18;3.20;;;;;;;12.66;100.00;100863.72;12203683;19;20010;-81
2023/09/24 07:39:57;;;;;;;11.38;3.80;;;;;;;12.87;100.00;100870.63;12186114;19;20007;-83
2023/09/24 07:43:59;;;;;;;5.40;3.40;;;;;;;13.09;100.00;100877.25;12208978;19;20377;-82
2023/09/24 07:48:06;;;;;;;7.68;3.42;;;;;;;13.33;100.00;100874.50;12200410;19;20010;-83
2023/09/24 07:52:09;;;;;;;10.15;3.60;;;;;;;13.57;100.00;100873.38;12157254;19;20026;-82
2023/09/24 07:56:12;;;;;;;;;;;;;;;13.73;100.00;100876.47;12204906;19;20010;-82
2023/09/24 08:00:14;;;;;;;9.80;3.20;;;;;;;14.02;100.00;100874.59;12207022;19;19915;-83
2023/09/24 08:04:16;;;;;;;6.97;3.40;;;;;;;14.23;100.00;100875.81;12183896;19;20829;-82
2023/09/24 08:08:19;;;;;;;5.93;3.17;;;;;;;14.40;100.00;100878.63;12207926;19;20251;-82
2023/09/24 08:12:21;;;;;;;6.60;4.18;;;;;;;14.59;100.00;100875.41;12206955;19;20015;-82
2023/09/24 08:16:22;;;;;;;6.28;3.25;;;;;;;14.84;100.00;100881.63;12184806;19;20037;-82
2023/09/24 08:20:26;;;;;;;10.10;4.32;;;;;;;15.03;100.00;100888.63;12203231;19;20007;-82
2023/09/24 08:24:28;;;;;;;4.80;2.78;;;;;;;15.13;100.00;100886.00;12209797;19;20708;-82
2023/09/24 08:28:30;;;;;;;8.73;3.38;;;;;;;15.25;100.00;100885.91;12179729;19;20017;-83
2023/09/24 08:32:32;;;;;;;6.03;3.50;;;;;;;15.38;100.00;100888.34;12201945;19;20077;-82
2023/09/24 08:36:34;;;;;;;7.15;3.40;;;;;;;15.54;100.00;100883.00;12195138;19;20450;-82
2023/09/24 08:40:39;;;;;;;6.10;2.90;;;;;;;15.67;100.00;100888.16;12206695;19;20513;-82
2023/09/24 08:44:43;;;;;;;9.63;3.50;;;;;;;15.83;100.00;100887.31;12207317;19;20013;-82
2023/09/24 08:48:45;;;;;;;7.18;3.13;;;;;;;16.05;100.00;100889.22;12184337;19;20034;-82
2023/09/24 08:52:48;;;;;;;;;;;;;;;16.24;100.00;100893.34;12206323;19;20006;-82
2023/09/24 08:56:50;;;;;;;6.75;3.08;;;;;;;16.45;100.00;100891.63;12199011;19;20078;-83
2023/09/24 09:00:52;;;;;;;4.73;2.83;;;;;;;16.69;100.00;100886.56;12178637;19;20010;-83
2023/09/24 09:04:55;;;;;;;6.95;2.80;;;;;;;16.89;100.00;100890.66;12197561;19;20239;-82
2023/09/24 09:08:59;;;;;;;9.82;3.22;;;;;;;16.98;100.00;100883.47;12199980;19;20035;-83
2023/09/24 09:13:18;;;;;;;6.93;2.47;;;;;;;17.21;100.00;100876.69;12180351;19;20090;-82
2023/09/24 09:17:20;;;;;;;7.65;3.08;;;;;;;17.44;100.00;100873.50;12200840;19;20027;-82
2023/09/24 09:21:26;;;;;;;9.20;2.60;;;;;;;17.58;100.00;100873.88;12201532;19;20013;-82
2023/09/24 09:25:29;;;;;;;5.80;2.80;;;;;;;17.72;98.68;100865.84;12179537;19;20011;-82
2023/09/24 09:29:31;;;;;;;4.53;2.40;;;;;;;17.90;97.60;100867.34;12197689;19;20464;-83
2023/09/24 09:33:39;;;;;;;4.60;2.22;;;;;;;18.09;96.32;100865.75;12206105;19;20082;-82
2023/09/24 09:37:42;;;;;;;6.90;2.90;;;;;;;18.15;93.83;100861.84;12178060;19;20003;-82
2023/09/24 09:41:48;;;;;;;5.13;2.67;;;;;;;18.17;92.95;100868.00;12199355;19;20010;-83
2023/09/24 09:45:54;;;;;;;5.13;3.55;;;;;;;18.34;92.66;100850.19;12183693;19;20031;-82
2023/09/24 09:50:00;;;;;;;6.28;2.80;;;;;;;18.49;90.74;100852.16;12203174;19;20002;-82
2023/09/24 09:54:08;;;;;;;5.10;2.67;;;;;;;18.63;90.70;100854.13;12200531;19;20351;-82
2023/09/24 09:58:12;;;;;;;11.77;3.20;;;;;;;18.83;87.59;100847.75;12183420;19;20006;-83
2023/09/24 10:02:26;;;;;;;5.30;2.53;;;;;;;19.03;86.62;100840.44;12195942;19;20046;-83
2023/09/24 10:06:34;;;;;;;5.05;2.15;;;;;;;19.04;85.04;100842.97;12210522;19;20015;-83
2023/09/24 10:10:39;;;;;;;3.63;2.25;;;;;;;19.19;82.84;100832.91;12177759;19;20014;-84
2023/09/24 10:14:48;;;;;;;4.10;2.22;;;;;;;19.27;83.15;100835.91;12201454;19;20026;-82
2023/09/24 10:18:55;;;;;;;6.70;2.40;;;;;;;19.41;82.82;100822.19;12179331;19;20011;-82
2023/09/24 10:23:30;;;;;;;5.47;2.15;;;;;;;19.46;80.46;100819.41;12202223;19;20010;-83
2023/09/24 10:27:33;;;;;;;4.07;2.25;;;;;;;19.69;80.94;100814.28;12206829;19;20351;-82
2023/09/24 10:32:08;;;;;;;4.70;2.30;;;;;;;19.84;79.77;100819.84;12180213;19;20025;-82
2023/09/24 10:36:28;;;;;;;4.05;1.88;;;;;;;20.03;77.28;100823.63;12191431;19;20003;-82
2023/09/24 10:40:31;;;;;;;5.82;2.60;;;;;;;20.11;76.58;100812.94;12180155;19;20010;-82
2023/09/24 10:44:35;;;;;;;5.78;2.30;;;;;;;20.27;76.33;100808.94;12214400;19;20030;-82
2023/09/24 10:48:43;;;;;;;9.23;1.98;;;;;;;20.46;73.83;100806.28;12179963;19;20014;-82
2023/09/24 10:53:01;;;;;;;6.70;1.92;;;;;;;20.60;73.03;100793.31;12203597;19;20010;-83
2023/09/24 10:57:03;;;;;;;4.60;2.33;;;;;;;20.76;70.74;100794.00;12199553;19;20014;-82
2023/09/24 11:01:05;;;;;;;4.47;2.03;;;;;;;20.92;71.16;100803.94;12180449;19;20006;-83
2023/09/24 11:05:08;;;;;;;5.22;2.58;;;;;;;21.11;67.87;100794.78;12207553;19;20014;-81
2023/09/24 11:09:18;;;;;;;6.22;1.90;;;;;;;21.23;64.93;100797.19;12207927;19;20010;-81
2023/09/24 11:13:25;;;;;;;9.05;4.25;;;;;;;21.38;66.10;100794.25;12188042;19;20017;-82
2023/09/24 11:17:28;;;;;;;4.25;2.30;;;;;;;21.47;65.40;100783.19;12202970;19;20014;-82
2023/09/24 11:21:30;;;;;;;;;;;;;;;20.87;66.89;100786.34;12211016;19;20042;-82
2023/09/24 11:25:32;;;;;;;5.97;2.15;;;;;;;20.77;67.70;100786.47;12189118;19;19938;-81
2023/09/24 11:29:35;;;;;;;2.92;1.58;;;;;;;20.32;66.99;100782.91;12207467;19;20030;-82
2023/09/24 11:33:36;;;;;;;3.60;1.77;;;;;;;20.12;68.85;100778.28;12186658;19;20014;-82
2023/09/24 11:38:01;;;;;;;3.00;1.38;;;;;;;19.96;67.72;100775.56;12206378;19;20082;-82
2023/09/24 11:42:06;;;;;;;2.20;1.40;;;;;;;20.54;69.24;100779.66;12208241;19;20031;-82
2023/09/24 11:46:21;;;;;;;4.23;1.67;;;;;;;22.01;64.71;100767.88;12189411;19;20007;-82
2023/09/24 11:50:24;;;;;;;2.08;1.13;;;;;;;23.28;60.93;100764.06;12201356;19;20090;-81
2023/09/24 11:54:26;;;;;;;3.75;1.60;;;;;;;24.18;56.78;100750.28;12199805;19;20007;-82
2023/09/24 11:58:28;;;;;;;2.90;1.15;;;;;;;24.99;53.53;100742.56;12180731;19;20010;-82
2023/09/24 12:02:29;;;;;;;2.20;1.02;;;;;;;25.56;49.95;100738.16;12201912;19;20038;-82
2023/09/24 12:06:35;;;;;;;1.50;0.90;;;;;;;25.83;47.69;100737.91;12207927;19;20003;-82
2023/09/24 12:10:40;;;;;;;3.92;1.25;;;;;;;25.91;45.76;100734.25;12180854;19;20010;-81
2023/09/24 12:14:43;;;;;;;2.25;1.08;;;;;;;26.16;44.17;100728.13;12204385;19;20014;-82
2023/09/24 12:18:48;;;;;;;4.10;1.33;;;;;;;26.31;42.07;100725.59;12181753;19;20070;-82
2023/09/24 12:22:52;;;;;;;2.28;1.10;;;;;;;26.85;41.71;100727.19;12208486;19;20007;-82
2023/09/24 12:26:53;;;;;;;2.65;1.15;;;;;;;26.88;41.04;100718.03;12207793;19;20010;-82
2023/09/24 12:30:56;;;;;;;2.75;0.95;;;;;;;27.51;41.49;100716.25;12184092;19;20438;-82
2023/09/24 12:34:58;;;;;;;3.15;1.20;;;;;;;27.48;39.02;100717.81;12200912;19;20376;-82
2023/09/24 12:39:00;;;;;;;;;;;;;;;27.46;41.58;100713.66;12204086;19;20014;-83
2023/09/24 12:43:02;;;;;;;2.40;0.90;;;;;;;27.79;39.10;100705.28;12185806;19;19942;-82
2023/09/24 12:47:04;;;;;;;;;;;;;;;26.58;41.45;100703.81;12203531;19;20738;-83
2023/09/24 12:51:07;;;;;;;2.05;0.90;;;;;;;26.62;42.78;100710.44;12205063;19;19942;-81
2023/09/24 12:55:11;;;;;;;3.80;1.20;;;;;;;27.23;39.66;100702.59;12180027;19;20010;-82
2023/09/24 12:59:14;;;;;;;3.10;1.13;;;;;;;27.97;37.22;100691.00;12202039;19;20007;-82
2023/09/24 13:03:17;;;;;;;1.98;0.95;;;;;;;27.44;36.28;100688.50;12200139;19;20054;-82
2023/09/24 13:07:19;;;;;;;1.85;1.15;;;;;;;26.89;38.51;100689.44;12188465;19;20483;-82
2023/09/24 13:11:22;;;;;;;1.40;1.00;;;;;;;26.36;40.05;100685.88;12206501;19;20752;-82
2023/09/24 13:15:24;;;;;;;5.63;2.90;;;;;;;25.21;41.89;100684.44;12208684;19;20084;-82
2023/09/24 13:19:26;;;;;;;2.15;1.00;;;;;;;24.86;42.42;100669.34;12183014;19;20011;-82
2023/09/24 13:23:28;;;;;;;4.88;1.63;;;;;;;24.48;42.62;100679.13;12206017;19;20063;-81
2023/09/24 13:27:30;;;;;;;1.95;0.90;;;;;;;23.95;43.28;100677.06;12204996;19;20090;-81
2023/09/24 13:31:34;;;;;;;3.58;1.67;;;;;;;23.85;43.23;100671.66;12182983;19;20007;-81
2023/09/24 13:35:45;;;;;;;2.03;1.25;;;;;;;23.55;43.41;100671.19;12205368;19;20509;-82
2023/09/24 13:39:48;;;;;;;2.63;1.17;;;;;;;23.27;44.03;100673.25;12182106;19;20014;-81
2023/09/24 13:43:51;;;;;;;2.50;0.88;;;;;;;23.28;44.22;100666.47;12201401;19;20034;-80
2023/09/24 13:47:54;;;;;;;1.90;1.30;;;;;;;23.02;44.53;100657.72;12201775;19;20469;-80
2023/09/24 13:51:56;;;;;;;1.70;1.00;;;;;;;22.72;45.15;100654.38;12181689;19;20215;-80
2023/09/24 13:55:58;;;;;;;3.73;1.27;;;;;;;22.45;46.00;100646.72;12197559;19;20031;-81
2023/09/24 14:00:01;;;;;;;3.28;1.40;;;;;;;22.19;46.80;100646.38;12193841;19;20010;-80
2023/09/24 14:04:05;;;;;;;2.00;0.95;;;;;;;21.96;47.02;100644.50;12186646;19;20079;-80
2023/09/24 14:12:28;;;;;;;3.17;1.17;;;;;;;21.34;49.99;100636.97;12224319;19;20077;-80
2023/09/24 14:16:30;;;;;;;2.03;1.30;;;;;;;21.33;50.23;100635.31;12196292;19;20010;-81
2023/09/24 14:20:35;;;;;;;3.10;1.70;;;;;;;21.28;49.66;100634.56;12218717;19;20029;-80
2023/09/24 14:24:37;;;;;;;1.42;0.85;;;;;;;21.07;50.35;100628.41;12199507;19;20018;-80
2023/09/24 14:28:43;;;;;;;1.27;0.80;;;;;;;20.99;50.58;100623.44;12222083;19;20010;-80
2023/09/24 14:32:44;;;;;;;1.80;0.87;;;;;;;21.12;50.39;100625.53;12218424;19;20015;-80
2023/09/24 14:36:46;;;;;;;1.85;1.10;;;;;;;21.61;48.66;100629.91;12193650;19;20033;-79
2023/09/24 14:40:48;;;;;;;2.43;0.80;;;;;;;22.02;47.12;100618.03;12213860;19;20010;-80
2023/09/24 14:44:52;;;;;;;1.38;0.60;;;;;;;22.17;46.57;100606.56;12212409;19;20386;-80
2023/09/24 14:49:00;;;;;;;3.75;1.55;;;;;;;22.30;46.35;100610.53;12199527;19;20035;-80
2023/09/24 14:53:04;;;;;;;1.98;1.00;;;;;;;22.35;46.98;100609.59;12213381;19;20009;-80
2023/09/24 14:57:06;;;;;;;1.50;0.80;;;;;;;22.27;46.94;100605.53;12212122;19;20017;-80
2023/09/24 15:01:08;;;;;;;3.50;1.35;;;;;;;22.24;46.54;100597.72;12192840;19;20006;-80
2023/09/24 15:05:09;;;;;;;3.37;1.10;;;;;;;22.06;46.59;100605.84;12211546;19;20010;-80
2023/09/24 15:09:12;;;;;;;2.10;0.93;;;;;;;21.97;46.92;100604.06;12214576;19;20013;-80
2023/09/24 15:13:14;;;;;;;1.87;0.93;;;;;;;21.90;46.93;100618.50;12190484;19;20010;-80
2023/09/24 15:17:16;;;;;;;2.22;1.02;;;;;;;21.80;47.07;100616.69;12209609;19;20006;-81
2023/09/24 15:21:18;;;;;;;1.27;0.90;;;;;;;21.73;47.94;100612.59;12212214;19;20018;-80
2023/09/24 15:25:20;;;;;;;2.77;1.03;;;;;;;21.56;48.12;100613.97;12191760;19;20106;-79
2023/09/24 15:29:23;;;;;;;2.90;1.13;;;;;;;21.49;48.31;100623.91;12206180;19;20070;-80
2023/09/24 15:33:32;;;;;;;2.25;1.20;;;;;;;21.38;48.45;100626.84;12204372;19;20010;-80
2023/09/24 15:37:34;;;;;;;2.70;1.10;;;;;;;21.25;51.25;100616.38;12188024;19;20592;-81
2023/09/24 15:41:37;;;;;;;1.80;0.70;;;;;;;21.20;50.49;100610.81;12209087;19;20007;-83
2023/09/24 15:45:46;;;;;;;4.18;1.50;;;;;;;21.16;50.92;100618.19;12188514;19;20007;-82
2023/09/24 15:49:48;;;;;;;1.30;0.80;;;;;;;21.05;51.77;100622.25;12205451;19;20458;-81
2023/09/24 15:53:50;;;;;;;1.60;1.00;;;;;;;20.96;51.15;100615.66;12208456;19;20552;-82
2023/09/24 15:57:53;;;;;;;1.85;0.93;;;;;;;20.86;51.63;100605.41;12191884;19;20011;-82
2023/09/24 16:01:55;;;;;;;1.30;0.90;;;;;;;20.81;51.04;100614.69;12209707;19;20014;-84
2023/09/24 16:05:56;;;;;;;2.37;0.90;;;;;;;20.72;51.30;100619.28;12205241;19;20908;-82
2023/09/24 16:10:00;;;;;;;2.53;0.95;;;;;;;20.60;51.52;100630.06;12182614;19;20010;-83
2023/09/24 16:14:03;;;;;;;1.23;0.93;;;;;;;20.43;51.84;100619.31;12207835;19;20007;-82
2023/09/24 16:18:06;;;;;;;1.93;0.90;;;;;;;20.28;53.20;100620.28;12207654;19;20018;-83
2023/09/24 16:22:12;;;;;;;1.63;1.00;;;;;;;20.06;56.14;100618.00;12188460;19;20294;-83
2023/09/24 16:26:14;;;;;;;1.77;0.88;;;;;;;19.84;56.66;100626.88;12211153;19;20003;-82
2023/09/24 16:30:17;;;;;;;2.22;0.95;;;;;;;19.67;59.61;100623.63;12211274;19;21218;-82
2023/09/24 16:34:19;;;;;;;1.20;0.73;;;;;;;19.48;61.48;100629.88;12173183;19;20010;-82
2023/09/24 16:38:21;;;;;;;3.28;1.00;;;;;;;19.29;62.77;100628.88;12191421;19;20018;-82
2023/09/24 16:42:25;;;;;;;2.95;1.00;;;;;;;19.08;65.77;100634.56;12184682;19;20034;-83
2023/09/24 16:46:27;;;;;;;2.72;0.90;;;;;;;18.83;68.25;100635.53;12177178;19;20011;-82
2023/09/24 16:50:29;;;;;;;3.90;1.13;;;;;;;18.61;70.04;100627.44;12201295;19;20066;-82
2023/09/24 16:54:31;;;;;;;4.78;1.13;;;;;;;18.36;72.54;100631.16;12210285;19;20030;-83
2023/09/24 16:58:38;;;;;;;2.85;1.08;;;;;;;18.14;74.17;100628.66;12184536;19;20010;-82
2023/09/24 17:02:39;;;;;;;2.13;1.15;;;;;;;17.92;75.84;100611.38;12206597;19;20029;-82
2023/09/24 17:06:41;;;;;;;5.63;1.50;;;;;;;17.67;77.90;100615.81;12191089;19;20018;-83
2023/09/24 17:10:49;;;;;;;2.23;1.20;;;;;;;17.46;80.09;100622.44;12201014;19;20006;-82
2023/09/24 17:14:51;;;;;;;3.05;1.20;;;;;;;17.23;81.86;100618.25;12210282;19;20014;-82
2023/09/24 17:18:53;;;;;;;4.70;1.23;;;;;;;16.99;83.56;100612.31;12186418;19;20013;-83
2023/09/24 17:22:55;;;;;;;3.00;1.20;;;;;;;16.80;84.73;100614.75;12213400;19;20033;-83
2023/09/24 17:26:57;;;;;;;4.13;2.28;;;;;;;16.57;87.89;100621.56;12211748;19;20023;-83
2023/09/24 17:30:59;;;;;;;3.03;1.80;;;;;;;16.39;89.68;100618.13;12178713;19;20014;-82
2023/09/24 17:35:00;;;;;;;5.05;1.40;;;;;;;16.18;91.23;100616.31;12200881;19;20019;-82
2023/09/24 17:39:03;;;;;;;4.70;1.40;;;;;;;16.01;92.17;100618.44;12204308;19;20026;-82
2023/09/24 17:43:04;;;;;;;1.93;1.07;;;;;;;15.86;92.42;100625.53;12182798;19;20046;-82
2023/09/24 17:47:06;;;;;;;4.10;1.17;;;;;;;15.73;93.17;100628.72;12205542;19;20026;-82
2023/09/24 17:51:10;;;;;;;5.63;1.42;;;;;;;15.61;93.71;100631.66;12202186;19;20006;-83
2023/09/24 17:55:12;;;;;;;4.47;2.65;;;;;;;15.49;94.74;100640.16;12177256;19;20007;-83
2023/09/24 17:59:15;;;;;;;4.70;1.15;;;;;;;15.37;95.52;100636.69;12203222;19;20006;-82
2023/09/24 18:03:19;;;;;;;3.37;1.17;;;;;;;15.26;95.81;100641.31;12196395;19;20019;-84
2023/09/24 18:07:22;;;;;;;6.70;1.50;;;;;;;15.17;96.49;100637.31;12177584;19;20098;-82
2023/09/24 18:11:24;;;;;;;2.65;1.20;;;;;;;15.07;97.03;100637.19;12199188;19;20010;-82
2023/09/24 18:15:27;;;;;;;3.15;1.55;;;;;;;14.99;97.88;100644.06;12196517;19;20034;-82
2023/09/24 18:19:29;;;;;;;3.65;1.52;;;;;;;14.88;98.41;100645.03;12182204;19;20021;-82
2023/09/24 18:23:33;;;;;;;3.03;1.40;;;;;;;14.82;98.99;100646.06;12201922;19;20034;-82
2023/09/24 18:27:35;;;;;;;3.80;1.50;;;;;;;14.75;99.68;100653.72;12189992;19;20022;-82
2023/09/24 18:31:38;;;;;;;3.60;1.40;;;;;;;14.68;99.98;100644.75;12200221;19;20007;-82
2023/09/24 18:35:40;;;;;;;3.03;1.35;;;;;;;14.62;100.00;100656.88;12202870;19;20022;-83
2023/09/24 18:39:42;;;;;;;4.25;1.40;;;;;;;14.56;100.00;100662.34;12180709;19;20086;-82